sensor_id;sensor_type;location;lat;lon;timestamp;P1;durP1;ratioP1;P2;durP2;ratioP2
30147;SDS011;16960;49.404;8.248;2023-06-22T00:00:53;6.30;;;5.80;;
30147;SDS011;16960;49.404;8.248;2023-06-22T00:03:21;5.90;;;5.13;;
30147;SDS011;16960;49.404;8.248;2023-06-22T00:05:49;6.70;;;6.10;;
30147;SDS011;16960;49.404;8.248;2023-06-22T00:08:17;6.20;;;5.60;;
30147;SDS011;16960;49.404;8.248;2023-06-22T00:10:45;6.17;;;5.67;;
30147;SDS011;16960;49.404;8.248;2023-06-22T00:13:12;6.00;;;5.50;;
30147;SDS011;16960;49.404;8.248;2023-06-22T00:15:41;6.07;;;5.47;;
30147;SDS011;16960;49.404;8.248;2023-06-22T00:18:10;5.60;;;5.00;;
30147;SDS011;16960;49.404;8.248;2023-06-22T00:20:38;5.63;;;5.13;;
30147;SDS011;16960;49.404;8.248;2023-06-22T00:23:05;7.00;;;6.33;;
30147;SDS011;16960;49.404;8.248;2023-06-22T00:25:33;5.40;;;4.90;;
30147;SDS011;16960;49.404;8.248;2023-06-22T00:28:01;5.60;;;4.87;;
30147;SDS011;16960;49.404;8.248;2023-06-22T00:30:29;6.07;;;5.50;;
30147;SDS011;16960;49.404;8.248;2023-06-22T00:32:56;5.70;;;5.20;;
30147;SDS011;16960;49.404;8.248;2023-06-22T00:35:25;5.30;;;4.90;;
30147;SDS011;16960;49.404;8.248;2023-06-22T00:37:54;5.20;;;4.80;;
30147;SDS011;16960;49.404;8.248;2023-06-22T00:40:26;6.30;;;5.03;;
30147;SDS011;16960;49.404;8.248;2023-06-22T00:42:58;5.50;;;5.00;;
30147;SDS011;16960;49.404;8.248;2023-06-22T00:45:37;5.03;;;4.63;;
30147;SDS011;16960;49.404;8.248;2023-06-22T00:48:05;5.20;;;4.80;;
30147;SDS011;16960;49.404;8.248;2023-06-22T00:50:34;4.90;;;4.50;;
30147;SDS011;16960;49.404;8.248;2023-06-22T00:53:03;5.20;;;4.80;;
30147;SDS011;16960;49.404;8.248;2023-06-22T00:55:33;5.30;;;4.80;;
30147;SDS011;16960;49.404;8.248;2023-06-22T00:58:02;7.50;;;4.90;;
30147;SDS011;16960;49.404;8.248;2023-06-22T01:00:33;5.17;;;4.77;;
30147;SDS011;16960;49.404;8.248;2023-06-22T01:03:01;5.27;;;4.80;;
30147;SDS011;16960;49.404;8.248;2023-06-22T01:05:28;5.00;;;4.50;;
30147;SDS011;16960;49.404;8.248;2023-06-22T01:08:03;5.70;;;5.20;;
30147;SDS011;16960;49.404;8.248;2023-06-22T01:10:36;5.60;;;4.30;;
30147;SDS011;16960;49.404;8.248;2023-06-22T01:13:11;5.30;;;4.80;;
30147;SDS011;16960;49.404;8.248;2023-06-22T01:15:45;5.53;;;5.03;;
30147;SDS011;16960;49.404;8.248;2023-06-22T01:18:23;5.30;;;4.90;;
30147;SDS011;16960;49.404;8.248;2023-06-22T01:20:52;5.50;;;4.90;;
30147;SDS011;16960;49.404;8.248;2023-06-22T01:23:36;5.93;;;5.33;;
30147;SDS011;16960;49.404;8.248;2023-06-22T01:26:25;5.20;;;4.70;;
30147;SDS011;16960;49.404;8.248;2023-06-22T01:29:02;6.27;;;5.07;;
30147;SDS011;16960;49.404;8.248;2023-06-22T01:31:32;5.47;;;4.70;;
30147;SDS011;16960;49.404;8.248;2023-06-22T01:34:01;5.10;;;4.63;;
30147;SDS011;16960;49.404;8.248;2023-06-22T01:36:30;5.27;;;4.77;;
30147;SDS011;16960;49.404;8.248;2023-06-22T01:38:58;4.87;;;4.37;;
30147;SDS011;16960;49.404;8.248;2023-06-22T01:41:26;4.70;;;4.30;;
30147;SDS011;16960;49.404;8.248;2023-06-22T01:43:55;5.83;;;5.33;;
30147;SDS011;16960;49.404;8.248;2023-06-22T01:46:24;5.70;;;5.00;;
30147;SDS011;16960;49.404;8.248;2023-06-22T01:48:51;5.20;;;4.80;;
30147;SDS011;16960;49.404;8.248;2023-06-22T01:51:19;5.33;;;4.93;;
30147;SDS011;16960;49.404;8.248;2023-06-22T01:53:46;4.67;;;4.20;;
30147;SDS011;16960;49.404;8.248;2023-06-22T01:56:13;4.47;;;4.07;;
30147;SDS011;16960;49.404;8.248;2023-06-22T01:58:44;5.67;;;5.00;;
30147;SDS011;16960;49.404;8.248;2023-06-22T02:01:17;5.10;;;4.70;;
30147;SDS011;16960;49.404;8.248;2023-06-22T02:03:53;4.60;;;4.20;;
30147;SDS011;16960;49.404;8.248;2023-06-22T02:06:29;6.20;;;5.60;;
30147;SDS011;16960;49.404;8.248;2023-06-22T02:09:02;4.43;;;4.00;;
30147;SDS011;16960;49.404;8.248;2023-06-22T02:11:34;4.93;;;4.43;;
30147;SDS011;16960;49.404;8.248;2023-06-22T02:14:03;4.83;;;4.43;;
30147;SDS011;16960;49.404;8.248;2023-06-22T02:16:31;5.63;;;5.20;;
30147;SDS011;16960;49.404;8.248;2023-06-22T02:19:01;5.10;;;4.60;;
30147;SDS011;16960;49.404;8.248;2023-06-22T02:21:29;5.40;;;4.90;;
30147;SDS011;16960;49.404;8.248;2023-06-22T02:23:56;4.87;;;4.47;;
30147;SDS011;16960;49.404;8.248;2023-06-22T02:26:23;4.90;;;4.50;;
30147;SDS011;16960;49.404;8.248;2023-06-22T02:28:51;4.93;;;4.53;;
30147;SDS011;16960;49.404;8.248;2023-06-22T02:31:18;5.60;;;5.10;;
30147;SDS011;16960;49.404;8.248;2023-06-22T02:33:46;4.60;;;4.20;;
30147;SDS011;16960;49.404;8.248;2023-06-22T02:36:14;4.43;;;4.03;;
30147;SDS011;16960;49.404;8.248;2023-06-22T02:38:41;5.03;;;4.57;;
30147;SDS011;16960;49.404;8.248;2023-06-22T02:41:13;5.53;;;5.03;;
30147;SDS011;16960;49.404;8.248;2023-06-22T02:43:43;5.30;;;4.80;;
30147;SDS011;16960;49.404;8.248;2023-06-22T02:46:11;5.07;;;4.57;;
30147;SDS011;16960;49.404;8.248;2023-06-22T02:48:38;4.93;;;4.43;;
30147;SDS011;16960;49.404;8.248;2023-06-22T02:51:05;5.40;;;4.53;;
30147;SDS011;16960;49.404;8.248;2023-06-22T02:53:34;4.53;;;4.13;;
30147;SDS011;16960;49.404;8.248;2023-06-22T02:56:01;4.50;;;4.13;;
30147;SDS011;16960;49.404;8.248;2023-06-22T02:58:30;6.80;;;4.23;;
30147;SDS011;16960;49.404;8.248;2023-06-22T03:01:03;6.23;;;4.33;;
30147;SDS011;16960;49.404;8.248;2023-06-22T03:03:30;4.83;;;4.43;;
30147;SDS011;16960;49.404;8.248;2023-06-22T03:05:57;4.40;;;4.10;;
30147;SDS011;16960;49.404;8.248;2023-06-22T03:08:26;4.77;;;4.37;;
30147;SDS011;16960;49.404;8.248;2023-06-22T03:10:56;4.73;;;4.33;;
30147;SDS011;16960;49.404;8.248;2023-06-22T03:13:23;4.93;;;4.53;;
30147;SDS011;16960;49.404;8.248;2023-06-22T03:15:50;4.90;;;4.40;;
30147;SDS011;16960;49.404;8.248;2023-06-22T03:18:17;4.53;;;4.17;;
30147;SDS011;16960;49.404;8.248;2023-06-22T03:20:44;4.20;;;3.87;;
30147;SDS011;16960;49.404;8.248;2023-06-22T03:23:11;4.27;;;3.97;;
30147;SDS011;16960;49.404;8.248;2023-06-22T03:25:38;5.20;;;4.70;;
30147;SDS011;16960;49.404;8.248;2023-06-22T03:28:06;5.00;;;4.60;;
30147;SDS011;16960;49.404;8.248;2023-06-22T03:30:33;5.00;;;4.37;;
30147;SDS011;16960;49.404;8.248;2023-06-22T03:33:00;5.37;;;4.97;;
30147;SDS011;16960;49.404;8.248;2023-06-22T03:35:27;5.27;;;4.87;;
30147;SDS011;16960;49.404;8.248;2023-06-22T03:37:54;4.83;;;4.43;;
30147;SDS011;16960;49.404;8.248;2023-06-22T03:40:21;4.80;;;4.40;;
30147;SDS011;16960;49.404;8.248;2023-06-22T03:42:48;5.10;;;4.60;;
30147;SDS011;16960;49.404;8.248;2023-06-22T03:45:16;4.93;;;4.47;;
30147;SDS011;16960;49.404;8.248;2023-06-22T03:47:43;5.13;;;4.67;;
30147;SDS011;16960;49.404;8.248;2023-06-22T03:50:10;4.20;;;3.90;;
30147;SDS011;16960;49.404;8.248;2023-06-22T03:52:38;4.93;;;4.50;;
30147;SDS011;16960;49.404;8.248;2023-06-22T03:55:06;4.90;;;4.50;;
30147;SDS011;16960;49.404;8.248;2023-06-22T03:57:33;4.30;;;4.00;;
30147;SDS011;16960;49.404;8.248;2023-06-22T04:00:00;4.90;;;4.50;;
30147;SDS011;16960;49.404;8.248;2023-06-22T04:02:32;5.27;;;4.77;;
30147;SDS011;16960;49.404;8.248;2023-06-22T04:04:58;5.00;;;4.60;;
30147;SDS011;16960;49.404;8.248;2023-06-22T04:07:25;4.70;;;4.30;;
30147;SDS011;16960;49.404;8.248;2023-06-22T04:09:52;4.17;;;3.77;;
30147;SDS011;16960;49.404;8.248;2023-06-22T04:12:19;6.10;;;5.60;;
30147;SDS011;16960;49.404;8.248;2023-06-22T04:14:46;5.13;;;4.73;;
30147;SDS011;16960;49.404;8.248;2023-06-22T04:17:13;5.27;;;4.77;;
30147;SDS011;16960;49.404;8.248;2023-06-22T04:19:41;5.37;;;4.90;;
30147;SDS011;16960;49.404;8.248;2023-06-22T04:22:08;4.87;;;4.43;;
30147;SDS011;16960;49.404;8.248;2023-06-22T04:24:35;5.77;;;4.30;;
30147;SDS011;16960;49.404;8.248;2023-06-22T04:27:02;4.80;;;4.40;;
30147;SDS011;16960;49.404;8.248;2023-06-22T04:29:29;4.83;;;4.43;;
30147;SDS011;16960;49.404;8.248;2023-06-22T04:31:57;4.00;;;3.70;;
30147;SDS011;16960;49.404;8.248;2023-06-22T04:34:28;5.63;;;5.13;;
30147;SDS011;16960;49.404;8.248;2023-06-22T04:36:56;4.73;;;4.33;;
30147;SDS011;16960;49.404;8.248;2023-06-22T04:39:24;5.67;;;5.10;;
30147;SDS011;16960;49.404;8.248;2023-06-22T04:41:52;5.13;;;4.73;;
30147;SDS011;16960;49.404;8.248;2023-06-22T04:44:20;5.73;;;5.30;;
30147;SDS011;16960;49.404;8.248;2023-06-22T04:46:50;5.27;;;4.77;;
30147;SDS011;16960;49.404;8.248;2023-06-22T04:49:19;5.10;;;4.70;;
30147;SDS011;16960;49.404;8.248;2023-06-22T04:51:47;5.13;;;4.73;;
30147;SDS011;16960;49.404;8.248;2023-06-22T04:54:18;5.00;;;4.60;;
30147;SDS011;16960;49.404;8.248;2023-06-22T04:56:45;5.40;;;5.00;;
30147;SDS011;16960;49.404;8.248;2023-06-22T04:59:14;5.43;;;4.93;;
30147;SDS011;16960;49.404;8.248;2023-06-22T05:01:43;5.50;;;5.10;;
30147;SDS011;16960;49.404;8.248;2023-06-22T05:04:10;6.00;;;5.50;;
30147;SDS011;16960;49.404;8.248;2023-06-22T05:06:37;6.03;;;5.53;;
30147;SDS011;16960;49.404;8.248;2023-06-22T05:09:04;7.20;;;6.50;;
30147;SDS011;16960;49.404;8.248;2023-06-22T05:11:33;8.83;;;8.13;;
30147;SDS011;16960;49.404;8.248;2023-06-22T05:14:00;7.60;;;7.00;;
30147;SDS011;16960;49.404;8.248;2023-06-22T05:16:27;8.33;;;7.53;;
30147;SDS011;16960;49.404;8.248;2023-06-22T05:18:54;9.03;;;8.13;;
30147;SDS011;16960;49.404;8.248;2023-06-22T05:21:21;9.30;;;8.40;;
30147;SDS011;16960;49.404;8.248;2023-06-22T05:23:49;9.73;;;8.73;;
30147;SDS011;16960;49.404;8.248;2023-06-22T05:26:16;9.20;;;8.33;;
30147;SDS011;16960;49.404;8.248;2023-06-22T05:28:45;11.30;;;10.07;;
30147;SDS011;16960;49.404;8.248;2023-06-22T05:31:13;12.67;;;10.13;;
30147;SDS011;16960;49.404;8.248;2023-06-22T05:33:41;10.43;;;9.43;;
30147;SDS011;16960;49.404;8.248;2023-06-22T05:36:08;10.20;;;9.20;;
30147;SDS011;16960;49.404;8.248;2023-06-22T05:38:35;10.43;;;9.40;;
30147;SDS011;16960;49.404;8.248;2023-06-22T05:41:02;11.53;;;10.37;;
30147;SDS011;16960;49.404;8.248;2023-06-22T05:43:29;11.07;;;9.87;;
30147;SDS011;16960;49.404;8.248;2023-06-22T05:45:57;11.67;;;10.47;;
30147;SDS011;16960;49.404;8.248;2023-06-22T05:48:25;11.00;;;9.90;;
30147;SDS011;16960;49.404;8.248;2023-06-22T05:50:53;11.90;;;10.70;;
30147;SDS011;16960;49.404;8.248;2023-06-22T05:53:20;11.20;;;10.10;;
30147;SDS011;16960;49.404;8.248;2023-06-22T05:55:47;11.30;;;10.30;;
30147;SDS011;16960;49.404;8.248;2023-06-22T05:58:14;11.97;;;10.87;;
30147;SDS011;16960;49.404;8.248;2023-06-22T06:00:41;10.33;;;9.33;;
30147;SDS011;16960;49.404;8.248;2023-06-22T06:03:10;11.60;;;10.57;;
30147;SDS011;16960;49.404;8.248;2023-06-22T06:05:37;15.43;;;13.40;;
30147;SDS011;16960;49.404;8.248;2023-06-22T06:08:05;13.53;;;12.10;;
30147;SDS011;16960;49.404;8.248;2023-06-22T06:10:33;12.70;;;11.50;;
30147;SDS011;16960;49.404;8.248;2023-06-22T06:13:01;11.30;;;10.20;;
30147;SDS011;16960;49.404;8.248;2023-06-22T06:15:29;12.57;;;11.37;;
30147;SDS011;16960;49.404;8.248;2023-06-22T06:17:57;12.00;;;10.77;;
30147;SDS011;16960;49.404;8.248;2023-06-22T06:20:25;11.60;;;10.50;;
30147;SDS011;16960;49.404;8.248;2023-06-22T06:22:53;10.60;;;9.60;;
30147;SDS011;16960;49.404;8.248;2023-06-22T06:25:21;12.93;;;11.20;;
30147;SDS011;16960;49.404;8.248;2023-06-22T06:27:48;11.97;;;10.67;;
30147;SDS011;16960;49.404;8.248;2023-06-22T06:30:17;12.03;;;10.83;;
30147;SDS011;16960;49.404;8.248;2023-06-22T06:32:46;14.17;;;11.63;;
30147;SDS011;16960;49.404;8.248;2023-06-22T06:35:13;12.43;;;11.13;;
30147;SDS011;16960;49.404;8.248;2023-06-22T06:37:43;11.83;;;10.60;;
30147;SDS011;16960;49.404;8.248;2023-06-22T06:40:12;11.60;;;10.50;;
30147;SDS011;16960;49.404;8.248;2023-06-22T06:42:40;12.10;;;10.90;;
30147;SDS011;16960;49.404;8.248;2023-06-22T06:45:09;10.50;;;9.50;;
30147;SDS011;16960;49.404;8.248;2023-06-22T06:47:37;11.83;;;10.73;;
30147;SDS011;16960;49.404;8.248;2023-06-22T06:50:05;12.73;;;11.53;;
30147;SDS011;16960;49.404;8.248;2023-06-22T06:52:33;11.17;;;10.17;;
30147;SDS011;16960;49.404;8.248;2023-06-22T06:55:01;11.60;;;10.50;;
30147;SDS011;16960;49.404;8.248;2023-06-22T06:57:30;11.53;;;10.07;;
30147;SDS011;16960;49.404;8.248;2023-06-22T06:59:57;10.73;;;9.10;;
30147;SDS011;16960;49.404;8.248;2023-06-22T07:02:24;10.33;;;9.20;;
30147;SDS011;16960;49.404;8.248;2023-06-22T07:04:53;11.37;;;10.37;;
30147;SDS011;16960;49.404;8.248;2023-06-22T07:07:21;11.97;;;10.87;;
30147;SDS011;16960;49.404;8.248;2023-06-22T07:09:48;11.40;;;10.27;;
30147;SDS011;16960;49.404;8.248;2023-06-22T07:12:16;12.73;;;11.30;;
30147;SDS011;16960;49.404;8.248;2023-06-22T07:14:43;11.37;;;10.27;;
30147;SDS011;16960;49.404;8.248;2023-06-22T07:17:10;11.60;;;10.40;;
30147;SDS011;16960;49.404;8.248;2023-06-22T07:19:37;11.60;;;10.50;;
30147;SDS011;16960;49.404;8.248;2023-06-22T07:22:05;11.47;;;10.30;;
30147;SDS011;16960;49.404;8.248;2023-06-22T07:24:32;10.77;;;9.63;;
30147;SDS011;16960;49.404;8.248;2023-06-22T07:26:59;13.70;;;10.13;;
30147;SDS011;16960;49.404;8.248;2023-06-22T07:29:28;11.20;;;10.10;;
30147;SDS011;16960;49.404;8.248;2023-06-22T07:31:56;11.50;;;10.50;;
30147;SDS011;16960;49.404;8.248;2023-06-22T07:34:25;14.93;;;12.43;;
30147;SDS011;16960;49.404;8.248;2023-06-22T07:36:52;12.87;;;11.40;;
30147;SDS011;16960;49.404;8.248;2023-06-22T07:39:19;13.33;;;11.90;;
30147;SDS011;16960;49.404;8.248;2023-06-22T07:41:50;11.60;;;10.07;;
30147;SDS011;16960;49.404;8.248;2023-06-22T07:44:17;10.53;;;9.43;;
30147;SDS011;16960;49.404;8.248;2023-06-22T07:46:46;10.97;;;9.80;;
30147;SDS011;16960;49.404;8.248;2023-06-22T07:49:13;10.60;;;9.63;;
30147;SDS011;16960;49.404;8.248;2023-06-22T07:51:39;9.77;;;8.80;;
30147;SDS011;16960;49.404;8.248;2023-06-22T07:54:06;11.03;;;9.93;;
30147;SDS011;16960;49.404;8.248;2023-06-22T07:56:33;8.90;;;8.10;;
30147;SDS011;16960;49.404;8.248;2023-06-22T07:59:02;9.67;;;8.67;;
30147;SDS011;16960;49.404;8.248;2023-06-22T08:01:29;10.47;;;8.10;;
30147;SDS011;16960;49.404;8.248;2023-06-22T08:03:57;8.60;;;7.60;;
30147;SDS011;16960;49.404;8.248;2023-06-22T08:06:24;8.23;;;7.20;;
30147;SDS011;16960;49.404;8.248;2023-06-22T08:08:51;9.13;;;8.23;;
30147;SDS011;16960;49.404;8.248;2023-06-22T08:11:19;9.20;;;8.30;;
30147;SDS011;16960;49.404;8.248;2023-06-22T08:13:47;8.10;;;7.40;;
30147;SDS011;16960;49.404;8.248;2023-06-22T08:16:14;8.40;;;7.60;;
30147;SDS011;16960;49.404;8.248;2023-06-22T08:18:41;13.53;;;8.63;;
30147;SDS011;16960;49.404;8.248;2023-06-22T08:21:09;8.63;;;7.83;;
30147;SDS011;16960;49.404;8.248;2023-06-22T08:23:37;8.50;;;7.73;;
30147;SDS011;16960;49.404;8.248;2023-06-22T08:26:03;8.70;;;7.90;;
30147;SDS011;16960;49.404;8.248;2023-06-22T08:28:30;8.43;;;7.73;;
30147;SDS011;16960;49.404;8.248;2023-06-22T08:30:57;8.67;;;7.77;;
30147;SDS011;16960;49.404;8.248;2023-06-22T08:33:25;8.00;;;7.20;;
30147;SDS011;16960;49.404;8.248;2023-06-22T08:35:53;8.37;;;7.57;;
30147;SDS011;16960;49.404;8.248;2023-06-22T08:38:22;7.53;;;6.87;;
30147;SDS011;16960;49.404;8.248;2023-06-22T08:40:49;7.97;;;7.20;;
30147;SDS011;16960;49.404;8.248;2023-06-22T08:43:15;8.37;;;7.67;;
30147;SDS011;16960;49.404;8.248;2023-06-22T08:45:42;8.00;;;7.30;;
30147;SDS011;16960;49.404;8.248;2023-06-22T08:48:09;7.50;;;6.90;;
30147;SDS011;16960;49.404;8.248;2023-06-22T08:50:36;8.03;;;7.27;;
30147;SDS011;16960;49.404;8.248;2023-06-22T08:53:05;7.93;;;7.23;;
30147;SDS011;16960;49.404;8.248;2023-06-22T08:55:33;7.73;;;7.10;;
30147;SDS011;16960;49.404;8.248;2023-06-22T08:58:00;7.73;;;7.00;;
30147;SDS011;16960;49.404;8.248;2023-06-22T09:00:28;7.30;;;6.60;;
30147;SDS011;16960;49.404;8.248;2023-06-22T09:02:58;7.07;;;6.47;;
30147;SDS011;16960;49.404;8.248;2023-06-22T09:05:25;7.37;;;6.77;;
30147;SDS011;16960;49.404;8.248;2023-06-22T09:07:52;6.57;;;6.07;;
30147;SDS011;16960;49.404;8.248;2023-06-22T09:10:19;6.83;;;6.20;;
30147;SDS011;16960;49.404;8.248;2023-06-22T09:12:48;8.67;;;7.10;;
30147;SDS011;16960;49.404;8.248;2023-06-22T09:15:15;7.57;;;6.97;;
30147;SDS011;16960;49.404;8.248;2023-06-22T09:17:42;7.53;;;6.80;;
30147;SDS011;16960;49.404;8.248;2023-06-22T09:20:11;6.67;;;6.10;;
30147;SDS011;16960;49.404;8.248;2023-06-22T09:22:38;7.77;;;7.07;;
30147;SDS011;16960;49.404;8.248;2023-06-22T09:25:05;6.70;;;6.10;;
30147;SDS011;16960;49.404;8.248;2023-06-22T09:27:33;8.03;;;6.57;;
30147;SDS011;16960;49.404;8.248;2023-06-22T09:30:01;7.77;;;7.07;;
30147;SDS011;16960;49.404;8.248;2023-06-22T09:32:29;7.47;;;6.80;;
30147;SDS011;16960;49.404;8.248;2023-06-22T09:34:56;6.20;;;5.70;;
30147;SDS011;16960;49.404;8.248;2023-06-22T09:37:23;7.03;;;6.33;;
30147;SDS011;16960;49.404;8.248;2023-06-22T09:39:50;6.40;;;5.90;;
30147;SDS011;16960;49.404;8.248;2023-06-22T09:42:17;8.03;;;6.13;;
30147;SDS011;16960;49.404;8.248;2023-06-22T09:44:44;6.83;;;6.23;;
30147;SDS011;16960;49.404;8.248;2023-06-22T09:47:12;6.27;;;5.77;;
30147;SDS011;16960;49.404;8.248;2023-06-22T09:49:39;6.50;;;5.90;;
30147;SDS011;16960;49.404;8.248;2023-06-22T09:52:06;8.03;;;6.00;;
30147;SDS011;16960;49.404;8.248;2023-06-22T09:54:33;7.10;;;6.50;;
30147;SDS011;16960;49.404;8.248;2023-06-22T09:57:00;6.33;;;5.83;;
30147;SDS011;16960;49.404;8.248;2023-06-22T09:59:27;6.07;;;5.47;;
30147;SDS011;16960;49.404;8.248;2023-06-22T10:01:54;5.73;;;5.27;;
30147;SDS011;16960;49.404;8.248;2023-06-22T10:04:22;7.77;;;6.10;;
30147;SDS011;16960;49.404;8.248;2023-06-22T10:06:49;6.30;;;5.70;;
30147;SDS011;16960;49.404;8.248;2023-06-22T10:09:16;6.03;;;5.63;;
30147;SDS011;16960;49.404;8.248;2023-06-22T10:11:43;6.20;;;5.70;;
30147;SDS011;16960;49.404;8.248;2023-06-22T10:14:10;6.30;;;5.23;;
30147;SDS011;16960;49.404;8.248;2023-06-22T10:16:37;8.07;;;5.80;;
30147;SDS011;16960;49.404;8.248;2023-06-22T10:19:06;5.93;;;5.43;;
30147;SDS011;16960;49.404;8.248;2023-06-22T10:21:34;6.47;;;5.87;;
30147;SDS011;16960;49.404;8.248;2023-06-22T10:24:01;6.07;;;5.50;;
30147;SDS011;16960;49.404;8.248;2023-06-22T10:26:31;6.30;;;5.80;;
30147;SDS011;16960;49.404;8.248;2023-06-22T10:28:58;5.90;;;5.40;;
30147;SDS011;16960;49.404;8.248;2023-06-22T10:31:25;6.00;;;5.40;;
30147;SDS011;16960;49.404;8.248;2023-06-22T10:33:52;5.80;;;5.30;;
30147;SDS011;16960;49.404;8.248;2023-06-22T10:36:20;6.27;;;5.67;;
30147;SDS011;16960;49.404;8.248;2023-06-22T10:38:48;6.13;;;5.53;;
30147;SDS011;16960;49.404;8.248;2023-06-22T10:41:15;5.57;;;5.17;;
30147;SDS011;16960;49.404;8.248;2023-06-22T10:43:42;5.33;;;4.93;;
30147;SDS011;16960;49.404;8.248;2023-06-22T10:46:09;5.10;;;4.50;;
30147;SDS011;16960;49.404;8.248;2023-06-22T10:48:36;5.53;;;5.10;;
30147;SDS011;16960;49.404;8.248;2023-06-22T10:51:03;6.33;;;5.83;;
30147;SDS011;16960;49.404;8.248;2023-06-22T10:53:30;5.80;;;5.40;;
30147;SDS011;16960;49.404;8.248;2023-06-22T10:55:59;5.87;;;5.37;;
30147;SDS011;16960;49.404;8.248;2023-06-22T10:58:26;5.90;;;5.40;;
30147;SDS011;16960;49.404;8.248;2023-06-22T11:00:53;6.97;;;5.60;;
30147;SDS011;16960;49.404;8.248;2023-06-22T11:03:20;6.37;;;5.77;;
30147;SDS011;16960;49.404;8.248;2023-06-22T11:05:46;5.93;;;5.43;;
30147;SDS011;16960;49.404;8.248;2023-06-22T11:08:13;5.80;;;5.30;;
30147;SDS011;16960;49.404;8.248;2023-06-22T11:10:40;6.27;;;5.67;;
30147;SDS011;16960;49.404;8.248;2023-06-22T11:13:09;5.73;;;5.23;;
30147;SDS011;16960;49.404;8.248;2023-06-22T11:15:36;5.63;;;5.23;;
30147;SDS011;16960;49.404;8.248;2023-06-22T11:18:03;5.17;;;4.70;;
30147;SDS011;16960;49.404;8.248;2023-06-22T11:20:32;5.57;;;5.13;;
30147;SDS011;16960;49.404;8.248;2023-06-22T11:23:03;5.73;;;5.30;;
30147;SDS011;16960;49.404;8.248;2023-06-22T11:25:30;5.13;;;4.63;;
30147;SDS011;16960;49.404;8.248;2023-06-22T11:27:57;5.37;;;4.97;;
30147;SDS011;16960;49.404;8.248;2023-06-22T11:30:25;5.50;;;5.10;;
30147;SDS011;16960;49.404;8.248;2023-06-22T11:32:52;5.90;;;5.40;;
30147;SDS011;16960;49.404;8.248;2023-06-22T11:35:19;5.07;;;4.67;;
30147;SDS011;16960;49.404;8.248;2023-06-22T11:37:46;4.90;;;4.50;;
30147;SDS011;16960;49.404;8.248;2023-06-22T11:40:13;5.83;;;5.33;;
30147;SDS011;16960;49.404;8.248;2023-06-22T11:42:40;7.20;;;5.20;;
30147;SDS011;16960;49.404;8.248;2023-06-22T11:45:07;5.63;;;5.17;;
30147;SDS011;16960;49.404;8.248;2023-06-22T11:47:36;5.73;;;5.10;;
30147;SDS011;16960;49.404;8.248;2023-06-22T11:50:04;5.47;;;4.60;;
30147;SDS011;16960;49.404;8.248;2023-06-22T11:52:33;5.30;;;4.90;;
30147;SDS011;16960;49.404;8.248;2023-06-22T11:55:01;5.60;;;5.13;;
30147;SDS011;16960;49.404;8.248;2023-06-22T11:57:28;5.20;;;4.80;;
30147;SDS011;16960;49.404;8.248;2023-06-22T11:59:56;6.10;;;5.60;;
30147;SDS011;16960;49.404;8.248;2023-06-22T12:02:22;4.80;;;4.40;;
30147;SDS011;16960;49.404;8.248;2023-06-22T12:04:51;5.80;;;5.30;;
30147;SDS011;16960;49.404;8.248;2023-06-22T12:07:19;5.13;;;4.73;;
30147;SDS011;16960;49.404;8.248;2023-06-22T12:09:46;6.50;;;5.53;;
30147;SDS011;16960;49.404;8.248;2023-06-22T12:12:13;5.00;;;4.60;;
30147;SDS011;16960;49.404;8.248;2023-06-22T12:14:40;5.23;;;4.83;;
30147;SDS011;16960;49.404;8.248;2023-06-22T12:17:07;4.83;;;4.50;;
30147;SDS011;16960;49.404;8.248;2023-06-22T12:19:34;5.10;;;4.70;;
30147;SDS011;16960;49.404;8.248;2023-06-22T12:22:02;4.93;;;4.53;;
30147;SDS011;16960;49.404;8.248;2023-06-22T12:24:29;4.47;;;4.07;;
30147;SDS011;16960;49.404;8.248;2023-06-22T12:26:56;6.00;;;5.20;;
30147;SDS011;16960;49.404;8.248;2023-06-22T12:29:23;4.10;;;3.80;;
30147;SDS011;16960;49.404;8.248;2023-06-22T12:31:50;5.20;;;4.73;;
30147;SDS011;16960;49.404;8.248;2023-06-22T12:34:17;4.80;;;4.40;;
30147;SDS011;16960;49.404;8.248;2023-06-22T12:36:44;5.13;;;4.70;;
30147;SDS011;16960;49.404;8.248;2023-06-22T12:39:13;4.60;;;4.20;;
30147;SDS011;16960;49.404;8.248;2023-06-22T12:41:40;5.20;;;4.77;;
30147;SDS011;16960;49.404;8.248;2023-06-22T12:44:07;5.10;;;4.70;;
30147;SDS011;16960;49.404;8.248;2023-06-22T12:46:34;5.90;;;5.27;;
30147;SDS011;16960;49.404;8.248;2023-06-22T12:49:03;4.67;;;4.33;;
30147;SDS011;16960;49.404;8.248;2023-06-22T12:51:30;4.87;;;4.47;;
30147;SDS011;16960;49.404;8.248;2023-06-22T12:53:57;4.70;;;4.30;;
30147;SDS011;16960;49.404;8.248;2023-06-22T12:56:25;4.70;;;4.30;;
30147;SDS011;16960;49.404;8.248;2023-06-22T12:58:52;5.03;;;4.63;;
30147;SDS011;16960;49.404;8.248;2023-06-22T13:01:19;4.90;;;4.50;;
30147;SDS011;16960;49.404;8.248;2023-06-22T13:03:47;5.30;;;4.90;;
30147;SDS011;16960;49.404;8.248;2023-06-22T13:06:14;5.27;;;4.67;;
30147;SDS011;16960;49.404;8.248;2023-06-22T13:08:41;6.63;;;5.07;;
30147;SDS011;16960;49.404;8.248;2023-06-22T13:11:08;5.00;;;4.60;;
30147;SDS011;16960;49.404;8.248;2023-06-22T13:13:36;5.80;;;5.27;;
30147;SDS011;16960;49.404;8.248;2023-06-22T13:16:04;6.10;;;4.53;;
30147;SDS011;16960;49.404;8.248;2023-06-22T13:18:31;5.43;;;5.00;;
30147;SDS011;16960;49.404;8.248;2023-06-22T13:20:59;5.07;;;4.67;;
30147;SDS011;16960;49.404;8.248;2023-06-22T13:23:25;6.07;;;5.07;;
30147;SDS011;16960;49.404;8.248;2023-06-22T13:25:52;5.73;;;5.23;;
30147;SDS011;16960;49.404;8.248;2023-06-22T13:28:19;5.27;;;4.77;;
30147;SDS011;16960;49.404;8.248;2023-06-22T13:30:48;5.20;;;4.70;;
30147;SDS011;16960;49.404;8.248;2023-06-22T13:33:14;4.73;;;4.33;;
30147;SDS011;16960;49.404;8.248;2023-06-22T13:35:42;5.83;;;5.30;;
30147;SDS011;16960;49.404;8.248;2023-06-22T13:38:09;5.33;;;4.83;;
30147;SDS011;16960;49.404;8.248;2023-06-22T13:40:36;4.83;;;4.37;;
30147;SDS011;16960;49.404;8.248;2023-06-22T13:43:04;8.83;;;4.77;;
30147;SDS011;16960;49.404;8.248;2023-06-22T13:45:31;6.47;;;4.77;;
30147;SDS011;16960;49.404;8.248;2023-06-22T13:48:00;5.37;;;4.90;;
30147;SDS011;16960;49.404;8.248;2023-06-22T13:50:26;6.00;;;5.13;;
30147;SDS011;16960;49.404;8.248;2023-06-22T13:52:54;5.00;;;4.50;;
30147;SDS011;16960;49.404;8.248;2023-06-22T13:55:21;4.90;;;3.97;;
30147;SDS011;16960;49.404;8.248;2023-06-22T13:57:48;4.67;;;4.27;;
30147;SDS011;16960;49.404;8.248;2023-06-22T14:00:16;5.57;;;4.80;;
30147;SDS011;16960;49.404;8.248;2023-06-22T14:02:44;4.93;;;4.43;;
30147;SDS011;16960;49.404;8.248;2023-06-22T14:05:12;4.50;;;4.10;;
30147;SDS011;16960;49.404;8.248;2023-06-22T14:07:39;5.60;;;5.00;;
30147;SDS011;16960;49.404;8.248;2023-06-22T14:10:06;6.60;;;4.97;;
30147;SDS011;16960;49.404;8.248;2023-06-22T14:12:33;5.73;;;5.10;;
30147;SDS011;16960;49.404;8.248;2023-06-22T14:15:00;5.60;;;4.63;;
30147;SDS011;16960;49.404;8.248;2023-06-22T14:17:27;6.33;;;4.40;;
30147;SDS011;16960;49.404;8.248;2023-06-22T14:19:54;7.53;;;5.20;;
30147;SDS011;16960;49.404;8.248;2023-06-22T14:22:22;6.43;;;5.30;;
30147;SDS011;16960;49.404;8.248;2023-06-22T14:24:49;5.40;;;4.90;;
30147;SDS011;16960;49.404;8.248;2023-06-22T14:27:16;7.30;;;4.80;;
30147;SDS011;16960;49.404;8.248;2023-06-22T14:29:43;6.00;;;4.93;;
30147;SDS011;16960;49.404;8.248;2023-06-22T14:32:10;6.57;;;5.50;;
30147;SDS011;16960;49.404;8.248;2023-06-22T14:34:37;4.70;;;4.30;;
30147;SDS011;16960;49.404;8.248;2023-06-22T14:37:05;4.90;;;4.40;;
30147;SDS011;16960;49.404;8.248;2023-06-22T14:39:35;7.30;;;4.80;;
30147;SDS011;16960;49.404;8.248;2023-06-22T14:42:02;7.10;;;4.90;;
30147;SDS011;16960;49.404;8.248;2023-06-22T14:44:30;4.77;;;4.27;;
30147;SDS011;16960;49.404;8.248;2023-06-22T14:46:57;5.83;;;5.30;;